sensor_id;sensor_type;location;lat;lon;timestamp;temperature;humidity
9808;DHT22;4943;52.550;13.462;2022-10-17T00:01:11;15.90;99.90
9808;DHT22;4943;52.550;13.462;2022-10-17T00:03:40;15.90;99.90
9808;DHT22;4943;52.550;13.462;2022-10-17T00:06:09;15.90;99.90
9808;DHT22;4943;52.550;13.462;2022-10-17T00:08:39;15.90;99.90
9808;DHT22;4943;52.550;13.462;2022-10-17T00:11:13;15.90;99.90
9808;DHT22;4943;52.550;13.462;2022-10-17T00:13:41;15.90;99.90
9808;DHT22;4943;52.550;13.462;2022-10-17T00:16:12;16.00;99.90
9808;DHT22;4943;52.550;13.462;2022-10-17T00:18:40;16.00;99.90
9808;DHT22;4943;52.550;13.462;2022-10-17T00:21:14;16.00;99.90
9808;DHT22;4943;52.550;13.462;2022-10-17T00:23:43;16.00;99.90
9808;DHT22;4943;52.550;13.462;2022-10-17T00:26:11;16.00;99.90
9808;DHT22;4943;52.550;13.462;2022-10-17T00:28:40;16.00;99.90
9808;DHT22;4943;52.550;13.462;2022-10-17T00:31:08;16.00;99.90
9808;DHT22;4943;52.550;13.462;2022-10-17T00:33:38;16.00;99.90
9808;DHT22;4943;52.550;13.462;2022-10-17T00:36:09;16.00;99.90
9808;DHT22;4943;52.550;13.462;2022-10-17T00:38:39;16.00;99.90
9808;DHT22;4943;52.550;13.462;2022-10-17T00:41:08;16.00;99.90
9808;DHT22;4943;52.550;13.462;2022-10-17T00:43:55;16.00;99.90
9808;DHT22;4943;52.550;13.462;2022-10-17T00:46:25;16.00;99.90
9808;DHT22;4943;52.550;13.462;2022-10-17T00:48:57;16.00;99.90
9808;DHT22;4943;52.550;13.462;2022-10-17T00:51:29;16.00;99.90
9808;DHT22;4943;52.550;13.462;2022-10-17T00:54:00;16.00;99.90
9808;DHT22;4943;52.550;13.462;2022-10-17T00:56:30;16.10;99.90
9808;DHT22;4943;52.550;13.462;2022-10-17T00:58:59;16.10;99.90
9808;DHT22;4943;52.550;13.462;2022-10-17T01:01:27;16.10;99.90
9808;DHT22;4943;52.550;13.462;2022-10-17T01:03:57;16.10;99.90
9808;DHT22;4943;52.550;13.462;2022-10-17T01:06:25;16.20;99.90
9808;DHT22;4943;52.550;13.462;2022-10-17T01:08:54;16.20;99.90
9808;DHT22;4943;52.550;13.462;2022-10-17T01:11:29;16.20;99.90
9808;DHT22;4943;52.550;13.462;2022-10-17T01:14:05;16.20;99.90
9808;DHT22;4943;52.550;13.462;2022-10-17T01:16:38;16.10;99.90
9808;DHT22;4943;52.550;13.462;2022-10-17T01:19:27;16.10;99.90
9808;DHT22;4943;52.550;13.462;2022-10-17T01:22:00;16.10;99.90
9808;DHT22;4943;52.550;13.462;2022-10-17T01:24:46;16.10;99.90
9808;DHT22;4943;52.550;13.462;2022-10-17T01:27:41;16.00;99.90
9808;DHT22;4943;52.550;13.462;2022-10-17T01:33:26;15.90;99.90
9808;DHT22;4943;52.550;13.462;2022-10-17T01:35:57;15.90;99.90
9808;DHT22;4943;52.550;13.462;2022-10-17T01:38:34;15.90;99.90
9808;DHT22;4943;52.550;13.462;2022-10-17T01:41:05;15.90;99.90
9808;DHT22;4943;52.550;13.462;2022-10-17T01:43:40;15.90;99.90
9808;DHT22;4943;52.550;13.462;2022-10-17T01:46:15;15.90;99.90
9808;DHT22;4943;52.550;13.462;2022-10-17T01:48:46;15.90;99.90
9808;DHT22;4943;52.550;13.462;2022-10-17T01:51:17;15.90;99.90
9808;DHT22;4943;52.550;13.462;2022-10-17T01:53:52;15.90;99.90
9808;DHT22;4943;52.550;13.462;2022-10-17T01:56:24;15.90;99.90
9808;DHT22;4943;52.550;13.462;2022-10-17T01:58:56;15.90;99.90
9808;DHT22;4943;52.550;13.462;2022-10-17T02:01:26;15.90;99.90
9808;DHT22;4943;52.550;13.462;2022-10-17T02:03:58;15.90;99.90
9808;DHT22;4943;52.550;13.462;2022-10-17T02:06:27;15.90;99.90
9808;DHT22;4943;52.550;13.462;2022-10-17T02:08:56;15.80;99.90
9808;DHT22;4943;52.550;13.462;2022-10-17T02:11:25;15.80;99.90
9808;DHT22;4943;52.550;13.462;2022-10-17T02:14:07;15.80;99.90
9808;DHT22;4943;52.550;13.462;2022-10-17T02:16:42;15.70;99.90
9808;DHT22;4943;52.550;13.462;2022-10-17T02:19:36;15.70;99.90
9808;DHT22;4943;52.550;13.462;2022-10-17T02:22:16;15.70;99.90
9808;DHT22;4943;52.550;13.462;2022-10-17T02:24:49;15.70;99.90
9808;DHT22;4943;52.550;13.462;2022-10-17T02:27:26;15.70;99.90
9808;DHT22;4943;52.550;13.462;2022-10-17T02:30:02;15.70;99.90
9808;DHT22;4943;52.550;13.462;2022-10-17T02:32:35;15.70;99.90
9808;DHT22;4943;52.550;13.462;2022-10-17T02:35:12;15.60;99.90
9808;DHT22;4943;52.550;13.462;2022-10-17T02:37:44;15.70;99.90
9808;DHT22;4943;52.550;13.462;2022-10-17T02:40:15;15.70;99.90
9808;DHT22;4943;52.550;13.462;2022-10-17T02:42:46;15.80;99.90
9808;DHT22;4943;52.550;13.462;2022-10-17T02:45:15;15.80;99.90
9808;DHT22;4943;52.550;13.462;2022-10-17T02:47:49;15.90;99.90
9808;DHT22;4943;52.550;13.462;2022-10-17T02:50:24;16.00;99.90
9808;DHT22;4943;52.550;13.462;2022-10-17T02:52:57;16.00;99.90
9808;DHT22;4943;52.550;13.462;2022-10-17T02:55:29;16.10;99.90
9808;DHT22;4943;52.550;13.462;2022-10-17T02:58:01;16.10;99.90
9808;DHT22;4943;52.550;13.462;2022-10-17T03:00:31;16.10;99.90
9808;DHT22;4943;52.550;13.462;2022-10-17T03:03:00;16.10;99.90
9808;DHT22;4943;52.550;13.462;2022-10-17T03:05:29;16.10;99.90
9808;DHT22;4943;52.550;13.462;2022-10-17T03:07:58;16.20;99.90
9808;DHT22;4943;52.550;13.462;2022-10-17T03:10:26;16.20;99.90
9808;DHT22;4943;52.550;13.462;2022-10-17T03:12:54;16.20;99.90
9808;DHT22;4943;52.550;13.462;2022-10-17T03:15:22;16.20;99.90
9808;DHT22;4943;52.550;13.462;2022-10-17T03:17:50;16.20;99.90
9808;DHT22;4943;52.550;13.462;2022-10-17T03:20:18;16.10;99.90
9808;DHT22;4943;52.550;13.462;2022-10-17T03:22:48;16.10;99.90
9808;DHT22;4943;52.550;13.462;2022-10-17T03:25:16;16.10;99.90
9808;DHT22;4943;52.550;13.462;2022-10-17T03:27:44;16.10;99.90
9808;DHT22;4943;52.550;13.462;2022-10-17T03:30:13;16.10;99.90
9808;DHT22;4943;52.550;13.462;2022-10-17T03:32:41;16.10;99.90
9808;DHT22;4943;52.550;13.462;2022-10-17T03:35:09;16.10;99.90
9808;DHT22;4943;52.550;13.462;2022-10-17T03:37:40;16.10;99.90
9808;DHT22;4943;52.550;13.462;2022-10-17T03:40:11;16.10;99.90
9808;DHT22;4943;52.550;13.462;2022-10-17T03:42:39;16.20;99.90
9808;DHT22;4943;52.550;13.462;2022-10-17T03:45:08;16.20;99.90
9808;DHT22;4943;52.550;13.462;2022-10-17T03:47:36;16.20;99.90
9808;DHT22;4943;52.550;13.462;2022-10-17T03:50:05;16.20;99.90
9808;DHT22;4943;52.550;13.462;2022-10-17T03:52:34;16.20;99.90
9808;DHT22;4943;52.550;13.462;2022-10-17T03:55:02;16.20;99.90
9808;DHT22;4943;52.550;13.462;2022-10-17T03:57:33;16.20;99.90
9808;DHT22;4943;52.550;13.462;2022-10-17T04:00:02;16.20;99.90
9808;DHT22;4943;52.550;13.462;2022-10-17T04:02:31;16.10;99.90
9808;DHT22;4943;52.550;13.462;2022-10-17T04:05:00;16.10;99.90
9808;DHT22;4943;52.550;13.462;2022-10-17T04:07:29;16.10;99.90
9808;DHT22;4943;52.550;13.462;2022-10-17T04:09:57;16.10;99.90
9808;DHT22;4943;52.550;13.462;2022-10-17T04:12:25;16.10;99.90
9808;DHT22;4943;52.550;13.462;2022-10-17T04:14:55;16.10;99.90
9808;DHT22;4943;52.550;13.462;2022-10-17T04:17:24;16.10;99.90
9808;DHT22;4943;52.550;13.462;2022-10-17T04:19:52;16.10;99.90
9808;DHT22;4943;52.550;13.462;2022-10-17T04:22:20;16.00;99.90
9808;DHT22;4943;52.550;13.462;2022-10-17T04:24:49;16.00;99.90
9808;DHT22;4943;52.550;13.462;2022-10-17T04:27:17;16.00;99.90
9808;DHT22;4943;52.550;13.462;2022-10-17T04:29:45;16.00;99.90
9808;DHT22;4943;52.550;13.462;2022-10-17T04:32:15;16.00;99.90
9808;DHT22;4943;52.550;13.462;2022-10-17T04:34:47;16.00;99.90
9808;DHT22;4943;52.550;13.462;2022-10-17T04:37:16;16.00;99.90
9808;DHT22;4943;52.550;13.462;2022-10-17T04:39:44;16.00;99.90
9808;DHT22;4943;52.550;13.462;2022-10-17T04:42:12;15.90;99.90
9808;DHT22;4943;52.550;13.462;2022-10-17T04:44:41;15.90;99.90
9808;DHT22;4943;52.550;13.462;2022-10-17T04:47:09;15.90;99.90
9808;DHT22;4943;52.550;13.462;2022-10-17T04:49:39;15.90;99.90
9808;DHT22;4943;52.550;13.462;2022-10-17T04:52:12;15.90;99.90
9808;DHT22;4943;52.550;13.462;2022-10-17T04:54:40;15.90;99.90
9808;DHT22;4943;52.550;13.462;2022-10-17T04:57:08;15.90;99.90
9808;DHT22;4943;52.550;13.462;2022-10-17T04:59:37;15.90;99.90
9808;DHT22;4943;52.550;13.462;2022-10-17T05:02:05;15.90;99.90
9808;DHT22;4943;52.550;13.462;2022-10-17T05:04:33;15.90;99.90
9808;DHT22;4943;52.550;13.462;2022-10-17T05:07:03;15.90;99.90
9808;DHT22;4943;52.550;13.462;2022-10-17T05:09:31;15.90;99.90
9808;DHT22;4943;52.550;13.462;2022-10-17T05:11:59;15.90;99.90
9808;DHT22;4943;52.550;13.462;2022-10-17T05:14:32;15.90;99.90
9808;DHT22;4943;52.550;13.462;2022-10-17T05:17:00;15.90;99.90
9808;DHT22;4943;52.550;13.462;2022-10-17T05:19:29;15.90;99.90
9808;DHT22;4943;52.550;13.462;2022-10-17T05:21:57;15.90;99.90
9808;DHT22;4943;52.550;13.462;2022-10-17T05:24:27;15.90;99.90
9808;DHT22;4943;52.550;13.462;2022-10-17T05:26:55;15.90;99.90
9808;DHT22;4943;52.550;13.462;2022-10-17T05:29:23;15.90;99.90
9808;DHT22;4943;52.550;13.462;2022-10-17T05:31:51;15.90;99.90
9808;DHT22;4943;52.550;13.462;2022-10-17T05:34:20;15.90;99.90
9808;DHT22;4943;52.550;13.462;2022-10-17T05:36:48;15.90;99.90
9808;DHT22;4943;52.550;13.462;2022-10-17T05:39:17;15.90;99.90
9808;DHT22;4943;52.550;13.462;2022-10-17T05:41:47;15.90;99.90
9808;DHT22;4943;52.550;13.462;2022-10-17T05:44:17;15.90;99.90
9808;DHT22;4943;52.550;13.462;2022-10-17T05:46:47;15.90;99.90
9808;DHT22;4943;52.550;13.462;2022-10-17T05:49:15;15.90;99.90
9808;DHT22;4943;52.550;13.462;2022-10-17T05:52:05;15.90;99.90
9808;DHT22;4943;52.550;13.462;2022-10-17T05:54:33;15.90;99.90
9808;DHT22;4943;52.550;13.462;2022-10-17T05:57:03;15.90;99.90
9808;DHT22;4943;52.550;13.462;2022-10-17T05:59:31;15.90;99.90
9808;DHT22;4943;52.550;13.462;2022-10-17T06:01:59;15.90;99.90
9808;DHT22;4943;52.550;13.462;2022-10-17T06:04:28;16.00;99.90
9808;DHT22;4943;52.550;13.462;2022-10-17T06:06:56;15.90;99.90
9808;DHT22;4943;52.550;13.462;2022-10-17T06:09:24;15.90;99.90
9808;DHT22;4943;52.550;13.462;2022-10-17T06:11:52;16.00;99.90
9808;DHT22;4943;52.550;13.462;2022-10-17T06:14:22;16.00;99.90
9808;DHT22;4943;52.550;13.462;2022-10-17T06:16:50;16.00;99.90
9808;DHT22;4943;52.550;13.462;2022-10-17T06:19:18;16.10;99.90
9808;DHT22;4943;52.550;13.462;2022-10-17T06:21:47;16.10;99.90
9808;DHT22;4943;52.550;13.462;2022-10-17T06:24:15;16.10;99.90
9808;DHT22;4943;52.550;13.462;2022-10-17T06:26:43;16.20;99.90
9808;DHT22;4943;52.550;13.462;2022-10-17T06:29:13;16.20;99.90
9808;DHT22;4943;52.550;13.462;2022-10-17T06:31:43;16.20;99.90
9808;DHT22;4943;52.550;13.462;2022-10-17T06:34:11;16.20;99.90
9808;DHT22;4943;52.550;13.462;2022-10-17T06:36:40;16.30;99.90
9808;DHT22;4943;52.550;13.462;2022-10-17T06:39:08;16.30;99.90
9808;DHT22;4943;52.550;13.462;2022-10-17T06:41:36;16.40;99.90
9808;DHT22;4943;52.550;13.462;2022-10-17T06:44:05;16.40;99.90
9808;DHT22;4943;52.550;13.462;2022-10-17T06:46:37;16.40;99.90
9808;DHT22;4943;52.550;13.462;2022-10-17T06:49:08;16.40;99.90
9808;DHT22;4943;52.550;13.462;2022-10-17T06:51:36;16.50;99.90
9808;DHT22;4943;52.550;13.462;2022-10-17T06:54:05;16.50;99.90
9808;DHT22;4943;52.550;13.462;2022-10-17T06:56:33;16.50;99.90
9808;DHT22;4943;52.550;13.462;2022-10-17T06:59:01;16.60;99.90
9808;DHT22;4943;52.550;13.462;2022-10-17T07:01:30;16.60;99.90
9808;DHT22;4943;52.550;13.462;2022-10-17T07:03:58;16.60;99.90
9808;DHT22;4943;52.550;13.462;2022-10-17T07:06:28;16.60;99.90
9808;DHT22;4943;52.550;13.462;2022-10-17T07:08:56;16.70;99.90
9808;DHT22;4943;52.550;13.462;2022-10-17T07:11:25;16.70;99.90
9808;DHT22;4943;52.550;13.462;2022-10-17T07:13:53;16.80;99.90
9808;DHT22;4943;52.550;13.462;2022-10-17T07:16:21;16.80;99.90
9808;DHT22;4943;52.550;13.462;2022-10-17T07:18:50;16.90;99.90
9808;DHT22;4943;52.550;13.462;2022-10-17T07:21:20;16.90;99.90
9808;DHT22;4943;52.550;13.462;2022-10-17T07:23:49;17.00;99.90
9808;DHT22;4943;52.550;13.462;2022-10-17T07:26:18;17.00;99.90
9808;DHT22;4943;52.550;13.462;2022-10-17T07:28:51;17.10;99.90
9808;DHT22;4943;52.550;13.462;2022-10-17T07:31:20;17.10;99.90
9808;DHT22;4943;52.550;13.462;2022-10-17T07:33:49;17.10;99.90
9808;DHT22;4943;52.550;13.462;2022-10-17T07:36:18;17.10;99.90
9808;DHT22;4943;52.550;13.462;2022-10-17T07:38:46;17.20;99.90
9808;DHT22;4943;52.550;13.462;2022-10-17T07:41:16;17.20;99.90
9808;DHT22;4943;52.550;13.462;2022-10-17T07:43:48;17.30;99.90
9808;DHT22;4943;52.550;13.462;2022-10-17T07:46:16;17.30;99.90
9808;DHT22;4943;52.550;13.462;2022-10-17T07:48:44;17.30;99.90
9808;DHT22;4943;52.550;13.462;2022-10-17T07:51:12;17.40;99.90
9808;DHT22;4943;52.550;13.462;2022-10-17T07:53:41;17.40;99.90
9808;DHT22;4943;52.550;13.462;2022-10-17T07:56:16;17.50;99.90
9808;DHT22;4943;52.550;13.462;2022-10-17T07:58:44;17.50;99.90
9808;DHT22;4943;52.550;13.462;2022-10-17T08:01:14;17.50;99.90
9808;DHT22;4943;52.550;13.462;2022-10-17T08:03:44;17.60;99.90
9808;DHT22;4943;52.550;13.462;2022-10-17T08:06:14;17.60;99.90
9808;DHT22;4943;52.550;13.462;2022-10-17T08:08:43;17.60;99.90
9808;DHT22;4943;52.550;13.462;2022-10-17T08:11:13;17.60;99.90
9808;DHT22;4943;52.550;13.462;2022-10-17T08:13:46;17.70;99.90
9808;DHT22;4943;52.550;13.462;2022-10-17T08:16:15;17.70;99.90
9808;DHT22;4943;52.550;13.462;2022-10-17T08:18:43;17.80;99.90
9808;DHT22;4943;52.550;13.462;2022-10-17T08:21:14;17.80;99.90
9808;DHT22;4943;52.550;13.462;2022-10-17T08:23:43;17.80;99.90
9808;DHT22;4943;52.550;13.462;2022-10-17T08:26:12;17.90;99.90
9808;DHT22;4943;52.550;13.462;2022-10-17T08:28:45;17.90;99.90
9808;DHT22;4943;52.550;13.462;2022-10-17T08:31:16;18.00;99.90
9808;DHT22;4943;52.550;13.462;2022-10-17T08:33:46;18.00;99.90
9808;DHT22;4943;52.550;13.462;2022-10-17T08:36:17;18.10;99.90
9808;DHT22;4943;52.550;13.462;2022-10-17T08:38:46;18.10;99.90
9808;DHT22;4943;52.550;13.462;2022-10-17T08:41:40;18.20;99.90
9808;DHT22;4943;52.550;13.462;2022-10-17T08:44:20;18.20;99.90
9808;DHT22;4943;52.550;13.462;2022-10-17T08:46:54;18.20;99.90
9808;DHT22;4943;52.550;13.462;2022-10-17T08:49:29;18.30;99.90
9808;DHT22;4943;52.550;13.462;2022-10-17T08:52:05;18.30;99.90
9808;DHT22;4943;52.550;13.462;2022-10-17T08:54:40;18.30;99.90
9808;DHT22;4943;52.550;13.462;2022-10-17T08:57:11;18.40;99.90
9808;DHT22;4943;52.550;13.462;2022-10-17T08:59:48;18.40;99.90
9808;DHT22;4943;52.550;13.462;2022-10-17T09:02:43;18.40;99.90
9808;DHT22;4943;52.550;13.462;2022-10-17T09:05:25;18.60;99.90
9808;DHT22;4943;52.550;13.462;2022-10-17T09:08:09;18.60;99.90
9808;DHT22;4943;52.550;13.462;2022-10-17T09:10:49;18.60;99.90
9808;DHT22;4943;52.550;13.462;2022-10-17T09:13:36;18.70;99.90
9808;DHT22;4943;52.550;13.462;2022-10-17T09:16:27;18.80;99.90
9808;DHT22;4943;52.550;13.462;2022-10-17T09:19:09;18.80;99.90
9808;DHT22;4943;52.550;13.462;2022-10-17T09:21:42;18.90;99.90
9808;DHT22;4943;52.550;13.462;2022-10-17T09:24:17;18.90;99.90
9808;DHT22;4943;52.550;13.462;2022-10-17T09:26:47;19.00;99.90
9808;DHT22;4943;52.550;13.462;2022-10-17T09:29:21;19.10;99.90
9808;DHT22;4943;52.550;13.462;2022-10-17T09:31:56;19.10;99.90
9808;DHT22;4943;52.550;13.462;2022-10-17T09:34:31;19.10;99.90
9808;DHT22;4943;52.550;13.462;2022-10-17T09:37:03;19.20;99.90
9808;DHT22;4943;52.550;13.462;2022-10-17T09:39:41;19.30;99.90
9808;DHT22;4943;52.550;13.462;2022-10-17T09:42:12;19.30;99.90
9808;DHT22;4943;52.550;13.462;2022-10-17T09:44:51;19.40;99.90
9808;DHT22;4943;52.550;13.462;2022-10-17T09:47:29;19.40;99.90
9808;DHT22;4943;52.550;13.462;2022-10-17T09:50:00;19.50;99.90
9808;DHT22;4943;52.550;13.462;2022-10-17T09:52:33;19.60;99.90
9808;DHT22;4943;52.550;13.462;2022-10-17T09:55:05;19.60;99.90
9808;DHT22;4943;52.550;13.462;2022-10-17T09:57:54;19.70;99.90
9808;DHT22;4943;52.550;13.462;2022-10-17T10:00:27;19.80;99.90
9808;DHT22;4943;52.550;13.462;2022-10-17T10:03:16;19.80;99.90
9808;DHT22;4943;52.550;13.462;2022-10-17T10:06:01;19.90;99.90
9808;DHT22;4943;52.550;13.462;2022-10-17T10:08:31;20.00;99.90
9808;DHT22;4943;52.550;13.462;2022-10-17T10:11:06;20.00;99.90
9808;DHT22;4943;52.550;13.462;2022-10-17T10:13:39;20.20;99.90
9808;DHT22;4943;52.550;13.462;2022-10-17T10:16:15;20.30;99.90
9808;DHT22;4943;52.550;13.462;2022-10-17T10:18:48;20.30;99.90
9808;DHT22;4943;52.550;13.462;2022-10-17T10:21:20;20.50;99.90
9808;DHT22;4943;52.550;13.462;2022-10-17T10:24:04;20.60;99.90
9808;DHT22;4943;52.550;13.462;2022-10-17T10:26:39;20.70;99.90
9808;DHT22;4943;52.550;13.462;2022-10-17T10:29:21;20.80;99.90
9808;DHT22;4943;52.550;13.462;2022-10-17T10:31:52;21.00;99.90
9808;DHT22;4943;52.550;13.462;2022-10-17T10:34:28;21.00;99.90
9808;DHT22;4943;52.550;13.462;2022-10-17T10:37:03;21.10;99.90
9808;DHT22;4943;52.550;13.462;2022-10-17T10:39:46;21.20;99.90
9808;DHT22;4943;52.550;13.462;2022-10-17T10:42:21;21.20;99.90
9808;DHT22;4943;52.550;13.462;2022-10-17T10:44:53;21.30;99.90
9808;DHT22;4943;52.550;13.462;2022-10-17T10:47:25;21.30;99.90
9808;DHT22;4943;52.550;13.462;2022-10-17T10:50:28;21.40;99.90
9808;DHT22;4943;52.550;13.462;2022-10-17T10:53:12;21.40;99.90
9808;DHT22;4943;52.550;13.462;2022-10-17T10:55:46;21.40;99.90
9808;DHT22;4943;52.550;13.462;2022-10-17T10:58:27;21.50;99.90
9808;DHT22;4943;52.550;13.462;2022-10-17T11:01:01;21.50;99.90
9808;DHT22;4943;52.550;13.462;2022-10-17T11:03:52;21.50;99.90
9808;DHT22;4943;52.550;13.462;2022-10-17T11:06:27;21.50;99.90
9808;DHT22;4943;52.550;13.462;2022-10-17T11:09:10;21.60;99.90
9808;DHT22;4943;52.550;13.462;2022-10-17T11:11:44;21.60;99.90
9808;DHT22;4943;52.550;13.462;2022-10-17T11:14:20;21.70;99.90
9808;DHT22;4943;52.550;13.462;2022-10-17T11:17:00;21.80;99.90
9808;DHT22;4943;52.550;13.462;2022-10-17T11:19:36;21.80;99.90
9808;DHT22;4943;52.550;13.462;2022-10-17T11:22:22;21.90;99.90
9808;DHT22;4943;52.550;13.462;2022-10-17T11:24:58;21.80;99.90
9808;DHT22;4943;52.550;13.462;2022-10-17T11:27:28;21.90;99.90
9808;DHT22;4943;52.550;13.462;2022-10-17T11:29:59;22.00;99.90
9808;DHT22;4943;52.550;13.462;2022-10-17T11:32:35;22.00;99.90
9808;DHT22;4943;52.550;13.462;2022-10-17T11:35:13;22.00;99.90
9808;DHT22;4943;52.550;13.462;2022-10-17T11:37:46;22.10;99.90
9808;DHT22;4943;52.550;13.462;2022-10-17T11:40:20;22.10;99.90
9808;DHT22;4943;52.550;13.462;2022-10-17T11:45:41;22.20;99.90
9808;DHT22;4943;52.550;13.462;2022-10-17T11:48:14;22.30;99.90
9808;DHT22;4943;52.550;13.462;2022-10-17T11:50:46;22.40;99.90
9808;DHT22;4943;52.550;13.462;2022-10-17T11:53:46;22.40;99.90
9808;DHT22;4943;52.550;13.462;2022-10-17T11:56:44;22.50;99.90
9808;DHT22;4943;52.550;13.462;2022-10-17T11:59:43;22.60;99.90
9808;DHT22;4943;52.550;13.462;2022-10-17T12:02:22;22.60;99.90
9808;DHT22;4943;52.550;13.462;2022-10-17T12:04:59;22.70;99.90
9808;DHT22;4943;52.550;13.462;2022-10-17T12:07:41;22.80;99.90
9808;DHT22;4943;52.550;13.462;2022-10-17T12:10:23;22.80;99.90
9808;DHT22;4943;52.550;13.462;2022-10-17T12:12:53;22.90;99.90
9808;DHT22;4943;52.550;13.462;2022-10-17T12:15:29;22.90;99.90
9808;DHT22;4943;52.550;13.462;2022-10-17T12:17:59;23.00;99.90
9808;DHT22;4943;52.550;13.462;2022-10-17T12:20:31;23.00;99.90
9808;DHT22;4943;52.550;13.462;2022-10-17T12:23:19;23.10;99.90
9808;DHT22;4943;52.550;13.462;2022-10-17T12:25:54;23.20;99.90
9808;DHT22;4943;52.550;13.462;2022-10-17T12:28:30;23.20;99.90
9808;DHT22;4943;52.550;13.462;2022-10-17T12:31:02;23.20;99.90
9808;DHT22;4943;52.550;13.462;2022-10-17T12:33:36;23.20;99.90
9808;DHT22;4943;52.550;13.462;2022-10-17T12:36:37;23.20;99.90
9808;DHT22;4943;52.550;13.462;2022-10-17T12:39:41;23.20;99.90
9808;DHT22;4943;52.550;13.462;2022-10-17T12:42:31;23.20;99.90
9808;DHT22;4943;52.550;13.462;2022-10-17T12:45:43;23.10;99.90
9808;DHT22;4943;52.550;13.462;2022-10-17T12:48:12;23.10;99.90
9808;DHT22;4943;52.550;13.462;2022-10-17T12:51:01;23.10;99.90
9808;DHT22;4943;52.550;13.462;2022-10-17T12:53:56;23.20;99.90
9808;DHT22;4943;52.550;13.462;2022-10-17T12:56:36;23.20;99.90
9808;DHT22;4943;52.550;13.462;2022-10-17T12:59:11;23.20;99.90
9808;DHT22;4943;52.550;13.462;2022-10-17T13:01:45;23.30;99.90
9808;DHT22;4943;52.550;13.462;2022-10-17T13:04:15;23.40;99.90
9808;DHT22;4943;52.550;13.462;2022-10-17T13:06:50;23.50;99.90
9808;DHT22;4943;52.550;13.462;2022-10-17T13:09:24;23.50;99.90
9808;DHT22;4943;52.550;13.462;2022-10-17T13:11:57;23.50;99.90
9808;DHT22;4943;52.550;13.462;2022-10-17T13:14:33;23.50;99.90
9808;DHT22;4943;52.550;13.462;2022-10-17T13:17:21;23.50;99.90
9808;DHT22;4943;52.550;13.462;2022-10-17T13:19:51;23.50;99.90
9808;DHT22;4943;52.550;13.462;2022-10-17T13:22:31;23.50;99.90
9808;DHT22;4943;52.550;13.462;2022-10-17T13:25:07;23.60;99.90
9808;DHT22;4943;52.550;13.462;2022-10-17T13:27:40;23.60;99.90
9808;DHT22;4943;52.550;13.462;2022-10-17T13:30:34;23.60;99.90
9808;DHT22;4943;52.550;13.462;2022-10-17T13:33:26;23.60;99.90
9808;DHT22;4943;52.550;13.462;2022-10-17T13:35:58;23.60;99.90
9808;DHT22;4943;52.550;13.462;2022-10-17T13:38:33;23.60;99.90
9808;DHT22;4943;52.550;13.462;2022-10-17T13:41:11;23.60;99.90
9808;DHT22;4943;52.550;13.462;2022-10-17T13:44:03;23.70;99.90
9808;DHT22;4943;52.550;13.462;2022-10-17T13:46:38;23.70;99.90
9808;DHT22;4943;52.550;13.462;2022-10-17T13:49:18;23.70;99.90
9808;DHT22;4943;52.550;13.462;2022-10-17T13:51:53;23.70;99.90
9808;DHT22;4943;52.550;13.462;2022-10-17T13:54:34;23.70;99.90
9808;DHT22;4943;52.550;13.462;2022-10-17T13:57:17;23.70;99.90
9808;DHT22;4943;52.550;13.462;2022-10-17T13:59:52;23.70;99.90
9808;DHT22;4943;52.550;13.462;2022-10-17T14:02:26;23.70;99.90
9808;DHT22;4943;52.550;13.462;2022-10-17T14:05:02;23.70;99.90
9808;DHT22;4943;52.550;13.462;2022-10-17T14:07:51;23.60;99.90
9808;DHT22;4943;52.550;13.462;2022-10-17T14:10:43;23.60;99.90
9808;DHT22;4943;52.550;13.462;2022-10-17T14:13:21;23.60;99.90
9808;DHT22;4943;52.550;13.462;2022-10-17T14:15:50;23.70;99.90
9808;DHT22;4943;52.550;13.462;2022-10-17T14:18:24;23.60;99.90
9808;DHT22;4943;52.550;13.462;2022-10-17T14:21:01;23.60;99.90
9808;DHT22;4943;52.550;13.462;2022-10-17T14:23:51;23.60;99.90
9808;DHT22;4943;52.550;13.462;2022-10-17T14:26:23;23.60;99.90
9808;DHT22;4943;52.550;13.462;2022-10-17T14:29:03;23.60;99.90
9808;DHT22;4943;52.550;13.462;2022-10-17T14:31:33;23.60;99.90
9808;DHT22;4943;52.550;13.462;2022-10-17T14:34:04;23.60;99.90
9808;DHT22;4943;52.550;13.462;2022-10-17T14:36:36;23.60;99.90
9808;DHT22;4943;52.550;13.462;2022-10-17T14:39:07;23.50;99.90
9808;DHT22;4943;52.550;13.462;2022-10-17T14:41:45;23.50;99.90
9808;DHT22;4943;52.550;13.462;2022-10-17T14:44:21;23.50;99.90
9808;DHT22;4943;52.550;13.462;2022-10-17T14:46:54;23.50;99.90
9808;DHT22;4943;52.550;13.462;2022-10-17T14:49:32;23.50;99.90
9808;DHT22;4943;52.550;13.462;2022-10-17T14:52:19;23.40;99.90
9808;DHT22;4943;52.550;13.462;2022-10-17T14:54:53;23.40;99.90
9808;DHT22;4943;52.550;13.462;2022-10-17T14:57:26;23.30;99.90
9808;DHT22;4943;52.550;13.462;2022-10-17T14:59:57;23.20;99.90
9808;DHT22;4943;52.550;13.462;2022-10-17T15:02:29;23.20;99.90
9808;DHT22;4943;52.550;13.462;2022-10-17T15:05:03;23.10;99.90
9808;DHT22;4943;52.550;13.462;2022-10-17T15:07:39;23.10;99.90
9808;DHT22;4943;52.550;13.462;2022-10-17T15:10:24;23.00;99.90
9808;DHT22;4943;52.550;13.462;2022-10-17T15:13:04;23.00;99.90
9808;DHT22;4943;52.550;13.462;2022-10-17T15:15:55;23.00;99.90
9808;DHT22;4943;52.550;13.462;2022-10-17T15:18:24;22.90;99.90
9808;DHT22;4943;52.550;13.462;2022-10-17T15:20:54;22.90;99.90
9808;DHT22;4943;52.550;13.462;2022-10-17T15:23:31;22.90;99.90
9808;DHT22;4943;52.550;13.462;2022-10-17T15:26:00;22.80;99.90
9808;DHT22;4943;52.550;13.462;2022-10-17T15:28:29;22.80;99.90
9808;DHT22;4943;52.550;13.462;2022-10-17T15:30:57;22.80;99.90
9808;DHT22;4943;52.550;13.462;2022-10-17T15:33:28;22.80;99.90
9808;DHT22;4943;52.550;13.462;2022-10-17T15:36:00;22.80;99.90
9808;DHT22;4943;52.550;13.462;2022-10-17T15:38:29;22.70;99.90
9808;DHT22;4943;52.550;13.462;2022-10-17T15:41:11;22.70;99.90
9808;DHT22;4943;52.550;13.462;2022-10-17T15:43:45;22.60;99.90
9808;DHT22;4943;52.550;13.462;2022-10-17T15:46:27;22.60;99.90
9808;DHT22;4943;52.550;13.462;2022-10-17T15:49:00;22.50;99.90
9808;DHT22;4943;52.550;13.462;2022-10-17T15:51:31;22.50;99.90
9808;DHT22;4943;52.550;13.462;2022-10-17T15:54:01;22.40;99.90
9808;DHT22;4943;52.550;13.462;2022-10-17T15:56:37;22.40;99.90
9808;DHT22;4943;52.550;13.462;2022-10-17T15:59:11;22.30;99.90
9808;DHT22;4943;52.550;13.462;2022-10-17T16:01:42;22.30;99.90
9808;DHT22;4943;52.550;13.462;2022-10-17T16:04:14;22.30;99.90
9808;DHT22;4943;52.550;13.462;2022-10-17T16:06:45;22.20;99.90
9808;DHT22;4943;52.550;13.462;2022-10-17T16:09:15;22.10;99.90
9808;DHT22;4943;52.550;13.462;2022-10-17T16:11:44;22.10;99.90
9808;DHT22;4943;52.550;13.462;2022-10-17T16:14:14;22.10;99.90
9808;DHT22;4943;52.550;13.462;2022-10-17T16:16:49;22.10;99.90
9808;DHT22;4943;52.550;13.462;2022-10-17T16:19:22;22.00;99.90
9808;DHT22;4943;52.550;13.462;2022-10-17T16:21:56;22.00;99.90
9808;DHT22;4943;52.550;13.462;2022-10-17T16:24:31;22.00;99.90
9808;DHT22;4943;52.550;13.462;2022-10-17T16:26:59;21.90;99.90
9808;DHT22;4943;52.550;13.462;2022-10-17T16:29:28;21.90;99.90
9808;DHT22;4943;52.550;13.462;2022-10-17T16:31:56;21.80;99.90